createdAt,value
2023-05-04T00:01:11.646Z,10.76
2023-05-04T00:03:39.870Z,10.63
2023-05-04T00:06:10.465Z,10.88
2023-05-04T00:08:38.438Z,11.02
2023-05-04T00:11:06.252Z,11.04
2023-05-04T00:13:34.145Z,10.93
2023-05-04T00:16:02.559Z,11.07
2023-05-04T00:18:30.594Z,11.14
2023-05-04T00:20:58.428Z,11.23
2023-05-04T00:23:26.614Z,11.13
2023-05-04T00:25:54.630Z,11.21
2023-05-04T00:28:22.620Z,10.94
2023-05-04T00:30:52.918Z,11.06
2023-05-04T00:33:22.524Z,10.83
2023-05-04T00:35:50.357Z,10.72
2023-05-04T00:38:19.389Z,10.78
2023-05-04T00:40:47.291Z,10.79
2023-05-04T00:43:15.207Z,10.86
2023-05-04T00:45:43.082Z,10.87
2023-05-04T00:48:11.323Z,10.74
2023-05-04T00:50:40.422Z,10.93
2023-05-04T00:53:10.886Z,10.83
2023-05-04T00:55:40.952Z,10.89
2023-05-04T00:58:11.739Z,10.98
2023-05-04T01:00:39.804Z,11.03
2023-05-04T01:03:10.421Z,11.02
2023-05-04T01:05:47.089Z,11.01
2023-05-04T01:08:18.709Z,10.93
2023-05-04T01:10:58.414Z,10.78
2023-05-04T01:13:28.364Z,10.72
2023-05-04T01:15:56.453Z,10.90
2023-05-04T01:18:24.472Z,10.82
2023-05-04T01:20:52.460Z,10.82
2023-05-04T01:23:21.129Z,10.82
2023-05-04T01:25:59.884Z,10.92
2023-05-04T01:29:11.343Z,10.89
2023-05-04T01:31:40.581Z,10.85
2023-05-04T01:34:09.260Z,10.97
2023-05-04T01:36:37.421Z,10.89
2023-05-04T01:39:05.557Z,10.90
2023-05-04T01:41:34.677Z,10.80
2023-05-04T01:44:04.049Z,10.72
2023-05-04T01:46:31.998Z,10.79
2023-05-04T01:49:01.044Z,10.82
2023-05-04T01:51:28.951Z,10.63
2023-05-04T01:53:58.146Z,10.40
2023-05-04T01:56:26.358Z,10.49
2023-05-04T01:58:54.372Z,10.38
2023-05-04T02:01:22.309Z,10.25
2023-05-04T02:03:50.412Z,10.47
2023-05-04T02:06:18.583Z,10.44
2023-05-04T02:08:46.950Z,10.13
2023-05-04T02:12:09.463Z,9.90
2023-05-04T02:14:37.911Z,9.74
2023-05-04T02:17:06.751Z,9.68
2023-05-04T02:19:34.677Z,9.67
2023-05-04T02:22:02.760Z,9.66
2023-05-04T02:24:30.714Z,9.48
2023-05-04T02:26:58.899Z,9.46
2023-05-04T02:29:34.429Z,9.31
2023-05-04T02:32:02.586Z,9.34
2023-05-04T02:34:30.716Z,9.34
2023-05-04T02:36:58.999Z,9.45
2023-05-04T02:39:26.877Z,9.69
2023-05-04T02:41:55.698Z,9.74
2023-05-04T02:44:23.695Z,9.84
2023-05-04T02:46:51.650Z,9.91
2023-05-04T02:49:19.630Z,10.01
2023-05-04T02:54:55.605Z,9.99
2023-05-04T02:57:23.696Z,9.97
2023-05-04T02:59:51.603Z,9.90
2023-05-04T03:02:19.594Z,10.02
2023-05-04T03:04:47.705Z,10.00
2023-05-04T03:07:15.840Z,10.07
2023-05-04T03:09:45.971Z,10.05
2023-05-04T03:12:15.950Z,10.05
2023-05-04T03:14:43.948Z,10.14
2023-05-04T03:17:12.404Z,10.14
2023-05-04T03:19:40.732Z,10.19
2023-05-04T03:22:10.334Z,10.25
2023-05-04T03:24:38.245Z,10.22
2023-05-04T03:27:06.316Z,10.25
2023-05-04T03:29:37.515Z,10.30
2023-05-04T03:32:07.102Z,10.34
2023-05-04T03:34:35.967Z,10.35
2023-05-04T03:37:06.367Z,10.30
2023-05-04T03:39:34.457Z,10.31
2023-05-04T03:42:02.848Z,10.39
2023-05-04T03:44:30.896Z,10.39
2023-05-04T03:46:58.847Z,10.28
2023-05-04T03:49:27.268Z,10.44
2023-05-04T03:51:55.449Z,10.44
2023-05-04T03:54:23.850Z,10.49
2023-05-04T03:56:54.225Z,10.54
2023-05-04T04:04:19.930Z,10.46
2023-05-04T04:06:48.078Z,10.52
2023-05-04T04:09:19.054Z,10.49
2023-05-04T04:11:47.535Z,10.56
2023-05-04T04:14:15.468Z,10.54
2023-05-04T04:16:43.592Z,10.57
2023-05-04T04:19:12.100Z,10.41
2023-05-04T04:21:40.147Z,10.32
2023-05-04T04:24:08.340Z,10.50
2023-05-04T04:26:36.378Z,10.45
2023-05-04T04:29:04.581Z,10.10
2023-05-04T04:31:32.763Z,10.23
2023-05-04T04:34:01.051Z,10.14
2023-05-04T04:36:28.934Z,10.10
2023-05-04T04:38:56.996Z,9.99
2023-05-04T04:41:25.333Z,9.99
2023-05-04T04:43:53.313Z,10.10
2023-05-04T04:46:21.193Z,9.96
2023-05-04T04:48:49.404Z,10.05
2023-05-04T04:51:17.559Z,9.90
2023-05-04T04:53:45.709Z,9.86
2023-05-04T04:56:14.071Z,9.85
2023-05-04T04:58:42.825Z,9.97
2023-05-04T05:01:10.841Z,10.02
2023-05-04T05:03:38.858Z,9.93
2023-05-04T05:06:06.824Z,9.78
2023-05-04T05:08:35.161Z,10.04
2023-05-04T05:11:04.245Z,9.98
2023-05-04T05:13:32.416Z,9.94
2023-05-04T05:16:00.519Z,10.09
2023-05-04T05:18:29.538Z,10.10
2023-05-04T05:20:58.019Z,10.34
2023-05-04T05:23:26.002Z,10.28
2023-05-04T05:25:53.995Z,10.16
2023-05-04T05:28:22.193Z,10.11
2023-05-04T05:30:52.355Z,10.15
2023-05-04T05:33:20.557Z,10.23
2023-05-04T05:35:48.394Z,10.31
2023-05-04T05:38:17.853Z,10.40
2023-05-04T05:40:45.846Z,10.32
2023-05-04T05:43:13.824Z,10.17
2023-05-04T05:45:41.888Z,9.72
2023-05-04T05:48:09.792Z,9.86
2023-05-04T05:50:38.157Z,10.07
2023-05-04T05:53:06.101Z,10.09
2023-05-04T05:55:34.184Z,9.94
2023-05-04T05:58:02.064Z,10.16
2023-05-04T06:00:30.079Z,9.62
2023-05-04T06:02:58.009Z,9.95
2023-05-04T06:05:26.104Z,9.89
2023-05-04T06:07:54.283Z,10.02
2023-05-04T06:10:22.548Z,9.99
2023-05-04T06:12:50.588Z,9.90
2023-05-04T06:15:18.880Z,9.74
2023-05-04T06:17:49.034Z,9.75
2023-05-04T06:20:17.181Z,9.74
2023-05-04T06:22:45.080Z,9.73
2023-05-04T06:25:13.524Z,9.75
2023-05-04T06:27:41.462Z,9.80
2023-05-04T06:30:10.254Z,10.10
2023-05-04T06:32:38.698Z,10.22
2023-05-04T06:35:09.292Z,10.26
2023-05-04T06:37:37.685Z,10.14
2023-05-04T06:40:07.476Z,10.34
2023-05-04T06:42:35.766Z,10.38
2023-05-04T06:45:03.887Z,10.41
2023-05-04T06:47:36.452Z,10.46
2023-05-04T06:50:12.077Z,10.48
2023-05-04T06:52:45.061Z,10.61
2023-05-04T06:55:14.035Z,10.69
2023-05-04T06:57:42.030Z,10.47
2023-05-04T07:00:10.903Z,10.73
2023-05-04T07:02:38.994Z,10.73
2023-05-04T07:05:07.312Z,10.45
2023-05-04T07:07:35.448Z,10.65
2023-05-04T07:10:03.817Z,10.42
2023-05-04T07:12:32.189Z,10.42
2023-05-04T07:15:00.161Z,10.55
2023-05-04T07:17:28.526Z,10.56
2023-05-04T07:19:56.468Z,10.58
2023-05-04T07:22:24.590Z,10.39
2023-05-04T07:24:52.736Z,10.39
2023-05-04T07:27:20.692Z,10.36
2023-05-04T07:29:48.606Z,10.49
2023-05-04T07:32:17.205Z,10.46
2023-05-04T07:34:46.691Z,10.41
2023-05-04T07:37:16.206Z,10.57
2023-05-04T07:39:44.344Z,10.65
2023-05-04T07:42:12.742Z,10.69
2023-05-04T07:44:41.596Z,10.73
2023-05-04T07:47:09.546Z,10.60
2023-05-04T07:49:37.828Z,10.68
2023-05-04T07:52:06.087Z,10.25
2023-05-04T07:54:34.014Z,10.21
2023-05-04T07:57:05.069Z,10.34
2023-05-04T07:59:33.635Z,10.56
2023-05-04T08:02:01.794Z,10.58
2023-05-04T08:04:29.852Z,10.46
2023-05-04T08:06:57.762Z,10.37
2023-05-04T08:09:25.760Z,10.64
2023-05-04T08:11:53.914Z,10.66
2023-05-04T08:14:24.783Z,10.87
2023-05-04T08:16:52.767Z,10.87
2023-05-04T08:19:20.715Z,11.07
2023-05-04T08:21:48.685Z,11.47
2023-05-04T08:24:18.771Z,11.68
2023-05-04T08:26:55.564Z,11.86
2023-05-04T08:29:29.217Z,12.11
2023-05-04T08:31:58.162Z,12.22
2023-05-04T08:34:27.515Z,12.25
2023-05-04T08:36:55.668Z,11.89
2023-05-04T08:39:26.211Z,11.33
2023-05-04T08:41:54.625Z,11.30
2023-05-04T08:44:23.533Z,11.54
2023-05-04T08:46:53.860Z,11.46
2023-05-04T08:49:23.543Z,11.68
2023-05-04T08:51:52.223Z,12.00
2023-05-04T08:54:21.727Z,11.94
2023-05-04T08:56:52.888Z,11.82
2023-05-04T08:59:23.325Z,11.60
2023-05-04T09:01:58.978Z,11.96
2023-05-04T09:04:29.248Z,12.26
2023-05-04T09:06:58.894Z,12.24
2023-05-04T09:09:28.992Z,12.39
2023-05-04T09:11:57.117Z,11.84
2023-05-04T09:14:33.284Z,11.84
2023-05-04T09:17:02.606Z,11.73
2023-05-04T09:19:34.921Z,11.67
2023-05-04T09:22:14.471Z,11.64
2023-05-04T09:24:42.376Z,11.55
2023-05-04T09:27:11.953Z,11.68
2023-05-04T09:29:42.640Z,11.84
2023-05-04T09:32:15.470Z,12.06
2023-05-04T09:34:54.268Z,12.29
2023-05-04T09:37:23.132Z,12.52
2023-05-04T09:39:59.012Z,12.62
2023-05-04T09:42:27.262Z,12.38
2023-05-04T09:45:06.577Z,12.14
2023-05-04T09:47:37.519Z,11.97
2023-05-04T09:50:12.217Z,11.94
2023-05-04T09:52:42.325Z,12.27
2023-05-04T09:55:18.194Z,12.09
2023-05-04T09:57:48.248Z,12.17
2023-05-04T10:00:18.223Z,12.44
2023-05-04T10:02:48.386Z,12.52
2023-05-04T10:05:18.853Z,12.19
2023-05-04T10:07:47.426Z,12.05
2023-05-04T10:10:15.967Z,12.11
2023-05-04T10:12:47.131Z,12.40
2023-05-04T10:15:17.542Z,12.22
2023-05-04T10:17:58.081Z,12.29
2023-05-04T10:20:28.635Z,12.55
2023-05-04T10:23:08.835Z,12.75
2023-05-04T10:26:05.033Z,12.66
2023-05-04T10:28:43.198Z,12.76
2023-05-04T10:31:11.640Z,12.99
2023-05-04T10:33:41.036Z,13.31
2023-05-04T10:36:10.030Z,13.22
2023-05-04T10:38:40.613Z,12.98
2023-05-04T10:41:19.112Z,13.51
2023-05-04T10:43:51.111Z,13.07
2023-05-04T10:46:23.033Z,13.23
2023-05-04T10:48:51.788Z,13.13
2023-05-04T10:51:30.156Z,13.14
2023-05-04T10:54:05.426Z,13.45
2023-05-04T10:56:33.544Z,13.92
2023-05-04T10:59:09.266Z,14.24
2023-05-04T11:01:46.744Z,14.73
2023-05-04T11:04:24.620Z,14.79
2023-05-04T11:07:08.861Z,14.62
2023-05-04T11:09:42.422Z,14.71
2023-05-04T11:12:13.465Z,14.88
2023-05-04T11:14:43.442Z,15.07
2023-05-04T11:17:27.612Z,15.16
2023-05-04T11:19:56.932Z,14.53
2023-05-04T11:22:24.826Z,14.53
2023-05-04T11:25:01.668Z,14.58
2023-05-04T11:27:30.550Z,14.43
2023-05-04T11:30:04.940Z,14.47
2023-05-04T11:32:38.571Z,14.37
2023-05-04T11:35:25.140Z,14.54
2023-05-04T11:37:53.973Z,14.69
2023-05-04T11:40:23.959Z,14.87
2023-05-04T11:42:57.230Z,14.89
2023-05-04T11:45:29.175Z,14.73
2023-05-04T11:47:58.752Z,14.69
2023-05-04T11:50:28.931Z,14.54
2023-05-04T11:53:12.254Z,14.61
2023-05-04T11:55:42.100Z,14.80
2023-05-04T11:58:11.876Z,14.35
2023-05-04T12:00:42.286Z,14.50
2023-05-04T12:03:19.104Z,14.50
2023-05-04T12:05:52.498Z,14.58
2023-05-04T12:08:35.225Z,14.99
2023-05-04T12:11:13.740Z,15.13
2023-05-04T12:13:42.971Z,14.88
2023-05-04T12:16:18.559Z,14.84
2023-05-04T12:18:47.732Z,14.60
2023-05-04T12:21:18.920Z,14.65
2023-05-04T12:23:48.035Z,14.41
2023-05-04T12:26:18.993Z,14.42
2023-05-04T12:28:47.769Z,14.25
2023-05-04T12:31:16.235Z,13.96
2023-05-04T12:33:44.302Z,14.26
2023-05-04T12:36:12.440Z,14.41
2023-05-04T12:38:40.286Z,14.56
2023-05-04T12:41:10.980Z,14.49
2023-05-04T12:43:39.243Z,14.68
2023-05-04T12:46:07.789Z,14.79
2023-05-04T12:48:35.829Z,14.81
2023-05-04T12:51:05.255Z,14.79
2023-05-04T12:53:33.579Z,14.75
2023-05-04T12:56:02.631Z,14.56
2023-05-04T12:58:31.417Z,14.52
2023-05-04T13:01:00.004Z,14.56
2023-05-04T13:03:28.242Z,14.66
2023-05-04T13:05:57.801Z,14.69
2023-05-04T13:08:25.973Z,14.68
2023-05-04T13:10:53.981Z,14.71
2023-05-04T13:13:26.401Z,14.98
2023-05-04T13:15:54.805Z,14.94
2023-05-04T13:18:27.538Z,14.85
2023-05-04T13:20:57.058Z,14.70
2023-05-04T13:23:25.354Z,14.98
2023-05-04T13:25:53.798Z,15.00
2023-05-04T13:28:21.734Z,14.89
2023-05-04T13:30:49.835Z,14.60
2023-05-04T13:33:28.977Z,14.48
2023-05-04T13:35:58.821Z,14.80
2023-05-04T13:38:27.321Z,14.45
2023-05-04T13:40:56.291Z,14.60
2023-05-04T13:43:25.578Z,14.79
2023-05-04T13:45:53.904Z,14.42
2023-05-04T13:48:21.729Z,14.59
2023-05-04T13:50:49.798Z,14.29
2023-05-04T13:53:17.787Z,14.12
2023-05-04T13:55:46.350Z,13.93
2023-05-04T13:58:14.359Z,13.97
2023-05-04T14:00:43.529Z,14.29
2023-05-04T14:03:11.827Z,14.15
2023-05-04T14:05:40.192Z,14.39
2023-05-04T14:08:08.269Z,14.48
2023-05-04T14:10:37.658Z,14.44
2023-05-04T14:13:05.838Z,14.52
2023-05-04T14:15:33.980Z,14.53
2023-05-04T14:18:02.514Z,14.48
2023-05-04T14:20:30.634Z,14.49
2023-05-04T14:22:58.630Z,14.51
2023-05-04T14:25:27.013Z,14.53
2023-05-04T14:27:55.032Z,14.52
2023-05-04T14:30:23.145Z,14.37
2023-05-04T14:32:55.402Z,14.32
2023-05-04T14:35:23.590Z,14.32
2023-05-04T14:37:51.881Z,14.12
2023-05-04T14:40:19.926Z,14.15
2023-05-04T14:42:48.232Z,13.98
2023-05-04T14:45:17.415Z,13.88
2023-05-04T14:47:45.715Z,13.61
2023-05-04T14:50:14.045Z,13.45
2023-05-04T14:52:42.318Z,13.40
2023-05-04T14:55:10.527Z,13.54
2023-05-04T14:57:38.614Z,13.67
2023-05-04T15:00:09.106Z,13.70
2023-05-04T15:02:41.808Z,13.66
2023-05-04T15:05:12.769Z,13.75
2023-05-04T15:07:41.215Z,13.75
2023-05-04T15:10:10.626Z,13.76
2023-05-04T15:12:40.502Z,13.64
2023-05-04T15:15:09.460Z,13.63
2023-05-04T15:17:37.994Z,13.66
2023-05-04T15:20:07.945Z,13.62
2023-05-04T15:22:36.717Z,13.58
2023-05-04T15:25:05.896Z,13.62
2023-05-04T15:27:34.448Z,13.53
2023-05-04T15:30:03.090Z,13.53
2023-05-04T15:32:33.089Z,13.52
2023-05-04T15:35:05.955Z,13.27
2023-05-04T15:37:35.270Z,13.28
2023-05-04T15:40:05.006Z,13.08
2023-05-04T15:42:33.809Z,13.21
2023-05-04T15:45:02.356Z,13.21
2023-05-04T15:47:32.385Z,13.21
2023-05-04T15:50:00.974Z,13.29
2023-05-04T15:52:29.399Z,13.37
2023-05-04T15:55:04.235Z,13.39
2023-05-04T15:57:38.073Z,13.41
2023-05-04T16:00:07.879Z,13.46
2023-05-04T16:02:36.508Z,13.50
2023-05-04T16:05:05.188Z,13.51
2023-05-04T16:07:34.554Z,13.54
2023-05-04T16:10:03.220Z,13.48
2023-05-04T16:12:31.675Z,13.52
2023-05-04T16:15:00.143Z,13.57
2023-05-04T16:17:29.414Z,13.57
2023-05-04T16:19:57.942Z,13.58
2023-05-04T16:22:26.301Z,13.62
2023-05-04T16:24:54.913Z,13.52
2023-05-04T16:27:29.220Z,13.55
2023-05-04T16:29:57.957Z,13.60
2023-05-04T16:32:26.311Z,13.61
2023-05-04T16:34:54.981Z,13.61
2023-05-04T16:37:23.344Z,13.59
2023-05-04T16:39:51.843Z,13.61
2023-05-04T16:42:21.627Z,13.46
2023-05-04T16:44:50.461Z,13.41
2023-05-04T16:47:18.970Z,13.50
2023-05-04T16:49:47.299Z,13.49
2023-05-04T16:52:15.932Z,13.48
2023-05-04T16:54:44.297Z,13.46
2023-05-04T16:57:12.781Z,13.40
2023-05-04T16:59:41.504Z,13.31
2023-05-04T17:02:09.931Z,13.32
2023-05-04T17:04:38.369Z,13.29
2023-05-04T17:07:08.770Z,13.26
2023-05-04T17:09:39.193Z,13.11
2023-05-04T17:12:07.582Z,13.21
2023-05-04T17:14:36.059Z,13.25
2023-05-04T17:17:04.710Z,13.11
2023-05-04T17:19:33.374Z,13.25
2023-05-04T17:22:01.722Z,13.23
2023-05-04T17:24:30.310Z,13.17
2023-05-04T17:26:58.996Z,13.22
2023-05-04T17:29:27.430Z,13.28
2023-05-04T17:31:56.144Z,13.28
2023-05-04T17:34:24.501Z,13.25
2023-05-04T17:36:54.215Z,12.94
2023-05-04T17:39:22.535Z,13.17
2023-05-04T17:41:51.407Z,13.17
2023-05-04T17:44:20.317Z,13.14
2023-05-04T17:46:48.844Z,13.11
2023-05-04T17:49:19.634Z,13.09
2023-05-04T17:51:49.647Z,13.01
2023-05-04T17:54:18.091Z,12.94
2023-05-04T17:56:46.708Z,12.87
2023-05-04T17:59:17.108Z,12.90
2023-05-04T18:01:46.305Z,12.92
2023-05-04T18:04:14.612Z,12.98
2023-05-04T18:06:43.359Z,12.94
2023-05-04T18:09:12.186Z,12.72
2023-05-04T18:11:40.416Z,12.93
2023-05-04T18:14:08.922Z,12.92
2023-05-04T18:16:39.603Z,12.88
2023-05-04T18:19:08.493Z,12.81
2023-05-04T18:21:39.550Z,12.86
2023-05-04T18:24:08.091Z,12.86
2023-05-04T18:26:36.700Z,12.84
2023-05-04T18:29:17.971Z,12.86
2023-05-04T18:31:48.828Z,12.82
2023-05-04T18:34:17.589Z,12.78
2023-05-04T18:36:48.032Z,12.77
2023-05-04T18:39:17.882Z,12.80
2023-05-04T18:41:46.562Z,12.77
2023-05-04T18:44:18.444Z,12.73
2023-05-04T18:46:47.183Z,12.62
2023-05-04T18:49:16.054Z,12.62
2023-05-04T18:51:44.600Z,12.41
2023-05-04T18:54:16.170Z,12.29
2023-05-04T18:56:44.991Z,12.35
2023-05-04T18:59:13.299Z,12.35
2023-05-04T19:01:41.889Z,12.32
2023-05-04T19:04:10.452Z,12.35
2023-05-04T19:06:38.568Z,12.25
2023-05-04T19:09:08.207Z,12.21
2023-05-04T19:11:36.535Z,12.24
2023-05-04T19:14:04.616Z,12.32
2023-05-04T19:16:33.003Z,12.32
2023-05-04T19:19:01.088Z,12.35
2023-05-04T19:21:29.778Z,12.40
2023-05-04T19:23:57.878Z,12.34
2023-05-04T19:26:26.081Z,12.43
2023-05-04T19:28:54.103Z,12.43
2023-05-04T19:31:23.013Z,12.41
2023-05-04T19:33:52.448Z,12.39
2023-05-04T19:36:20.546Z,12.37
2023-05-04T19:38:48.979Z,12.39
2023-05-04T19:41:17.599Z,12.35
2023-05-04T19:43:46.170Z,12.34
2023-05-04T19:46:14.652Z,12.39
2023-05-04T19:48:43.971Z,12.43
2023-05-04T19:51:12.678Z,12.45
2023-05-04T19:53:41.068Z,12.42
2023-05-04T19:56:09.303Z,12.46
2023-05-04T19:58:37.942Z,12.45
2023-05-04T20:01:06.045Z,12.44
2023-05-04T20:03:34.025Z,12.44
2023-05-04T20:06:03.845Z,12.37
2023-05-04T20:08:31.897Z,12.41
2023-05-04T20:11:00.216Z,12.42
2023-05-04T20:13:28.454Z,12.43
2023-05-04T20:15:57.059Z,12.32
2023-05-04T20:18:25.455Z,12.06
2023-05-04T20:20:53.636Z,12.18
2023-05-04T20:23:22.527Z,12.11
2023-05-04T20:25:51.379Z,11.82
2023-05-04T20:28:19.380Z,11.84
2023-05-04T20:30:47.455Z,11.87
2023-05-04T20:33:15.351Z,11.86
2023-05-04T20:35:44.469Z,11.76
2023-05-04T20:38:12.785Z,11.76
2023-05-04T20:40:40.823Z,11.77
2023-05-04T20:43:08.737Z,11.71
2023-05-04T20:45:36.715Z,11.69
2023-05-04T20:48:05.004Z,11.65
2023-05-04T20:50:33.243Z,11.65
2023-05-04T20:53:03.957Z,11.44
2023-05-04T20:55:32.154Z,11.54
2023-05-04T20:58:00.250Z,11.57
2023-05-04T21:00:32.989Z,11.59
2023-05-04T21:03:01.877Z,11.60
2023-05-04T21:05:29.841Z,11.69
2023-05-04T21:07:57.828Z,11.42
2023-05-04T21:10:25.773Z,11.54
2023-05-04T21:12:57.734Z,11.52
2023-05-04T21:15:26.818Z,11.64
2023-05-04T21:17:54.834Z,11.62
2023-05-04T21:20:22.925Z,11.52
2023-05-04T21:22:51.007Z,11.59
2023-05-04T21:25:19.049Z,11.64
2023-05-04T21:27:47.084Z,11.71
2023-05-04T21:30:15.657Z,11.73
2023-05-04T21:32:43.924Z,11.78
2023-05-04T21:35:12.051Z,11.74
2023-05-04T21:37:40.272Z,11.68
2023-05-04T21:40:09.378Z,11.71
2023-05-04T21:42:37.501Z,11.73
2023-05-04T21:45:06.518Z,11.76
2023-05-04T21:47:34.443Z,11.70
2023-05-04T21:50:02.373Z,11.71
2023-05-04T21:52:30.433Z,11.68
2023-05-04T21:54:58.360Z,11.64
2023-05-04T21:57:26.599Z,11.64
2023-05-04T21:59:54.519Z,11.57
2023-05-04T22:02:22.379Z,11.53
2023-05-04T22:04:50.320Z,11.39
2023-05-04T22:07:18.355Z,11.41
2023-05-04T22:09:46.164Z,11.39
2023-05-04T22:12:14.062Z,11.36
2023-05-04T22:14:44.057Z,11.41
2023-05-04T22:17:11.951Z,11.44
2023-05-04T22:19:39.878Z,11.45
2023-05-04T22:22:07.681Z,11.41
2023-05-04T22:24:35.984Z,11.39
2023-05-04T22:27:03.991Z,11.45
2023-05-04T22:29:35.128Z,11.51
2023-05-04T22:32:02.980Z,11.35
2023-05-04T22:34:30.920Z,11.35
2023-05-04T22:36:58.736Z,11.36
2023-05-04T22:39:26.685Z,11.38
2023-05-04T22:41:54.614Z,11.36
2023-05-04T22:44:22.417Z,11.34
2023-05-04T22:46:50.250Z,11.35
2023-05-04T22:49:18.398Z,11.31
2023-05-04T22:51:46.329Z,11.31
2023-05-04T22:54:14.231Z,11.19
2023-05-04T22:56:42.107Z,11.20
2023-05-04T22:59:10.025Z,11.21
2023-05-04T23:01:42.738Z,11.27
2023-05-04T23:04:11.652Z,11.16
2023-05-04T23:06:39.288Z,11.12
2023-05-04T23:09:07.144Z,11.02
2023-05-04T23:11:35.044Z,10.96
2023-05-04T23:14:02.990Z,10.96
2023-05-04T23:16:31.239Z,10.90
2023-05-04T23:18:59.524Z,10.91
2023-05-04T23:21:27.542Z,10.93
2023-05-04T23:23:55.510Z,10.96
2023-05-04T23:26:23.963Z,10.94
2023-05-04T23:28:51.996Z,10.89
2023-05-04T23:31:20.136Z,10.80
2023-05-04T23:33:48.079Z,10.71
2023-05-04T23:36:15.896Z,10.74
2023-05-04T23:38:43.791Z,10.59
2023-05-04T23:41:12.740Z,10.68
2023-05-04T23:43:40.762Z,10.67
2023-05-04T23:46:08.815Z,10.73
2023-05-04T23:48:36.606Z,10.81
2023-05-04T23:51:04.937Z,10.87
2023-05-04T23:53:34.052Z,10.81
2023-05-04T23:56:04.269Z,10.85
2023-05-04T23:58:33.805Z,10.88
